Time;durP1;ratioP1;P1;durP2;ratioP2;P2;SDS_P1;SDS_P2;PMS_P1;PMS_P2;Temp;Humidity;BMP_temperature;BMP_pressure;BME280_temperature;BME280_humidity;BME280_pressure;Samples;Min_cycle;Max_cycle;Signal;HPM_P1;HPM_P2
2023/06/20 00:01:46;;;;;;;0.10;0.10;;;24.30;99.90;;;;;;5047250;28;20244;-81
2023/06/20 00:04:12;;;;;;;0.10;0.10;;;24.20;99.90;;;;;;5045679;28;20193;-81
2023/06/20 00:06:37;;;;;;;0.10;0.10;;;24.20;99.90;;;;;;5046030;28;20217;-81
2023/06/20 00:09:03;;;;;;;0.13;0.13;;;24.20;99.90;;;;;;5044972;28;20206;-81
2023/06/20 00:11:28;;;;;;;0.10;0.10;;;24.10;99.90;;;;;;5045279;28;20241;-82
2023/06/20 00:13:54;;;;;;;0.10;0.10;;;24.10;99.90;;;;;;5046622;28;20178;-81
2023/06/20 00:16:20;;;;;;;0.10;0.10;;;24.10;99.90;;;;;;5044466;28;20231;-82
2023/06/20 00:18:53;;;;;;;0.10;0.10;;;24.00;99.90;;;;;;5043343;28;20193;-81
2023/06/20 00:21:26;;;;;;;0.10;0.10;;;23.90;99.90;;;;;;5044398;28;20184;-81
2023/06/20 00:23:54;;;;;;;0.10;0.10;;;23.90;99.90;;;;;;5045134;28;20300;-81
2023/06/20 00:26:20;;;;;;;0.10;0.10;;;23.90;99.90;;;;;;5046019;28;20197;-82
2023/06/20 00:28:46;;;;;;;0.10;0.10;;;23.80;99.90;;;;;;5044343;28;20201;-81
2023/06/20 00:31:12;;;;;;;0.10;0.10;;;23.80;99.90;;;;;;5046820;28;20280;-81
2023/06/20 00:33:37;;;;;;;0.10;0.10;;;23.80;99.90;;;;;;5045942;28;20208;-82
2023/06/20 00:36:03;;;;;;;0.10;0.10;;;23.80;99.90;;;;;;5045330;28;20259;-81
2023/06/20 00:38:29;;;;;;;0.10;0.10;;;23.60;99.90;;;;;;5047102;28;20190;-81
2023/06/20 00:40:55;;;;;;;0.10;0.10;;;23.50;99.90;;;;;;5046784;28;20832;-81
2023/06/20 00:43:21;;;;;;;0.10;0.10;;;23.50;99.90;;;;;;5046780;28;20203;-82
2023/06/20 00:45:46;;;;;;;0.10;0.10;;;23.50;99.90;;;;;;5048615;28;20666;-81
2023/06/20 00:48:12;;;;;;;0.10;0.10;;;23.40;99.90;;;;;;5050674;28;20189;-81
2023/06/20 00:50:38;;;;;;;0.10;0.10;;;23.30;99.90;;;;;;5048037;28;20296;-81
2023/06/20 00:53:05;;;;;;;0.10;0.10;;;23.00;99.90;;;;;;5047058;28;20289;-81
2023/06/20 00:55:33;;;;;;;0.10;0.10;;;22.70;99.90;;;;;;5059236;28;21000;-81
2023/06/20 00:58:00;;;;;;;0.10;0.10;;;22.50;99.90;;;;;;5047952;28;20196;-81
2023/06/20 01:00:28;;;;;;;0.10;0.10;;;22.80;99.90;;;;;;5048043;28;20220;-82
2023/06/20 01:02:57;;;;;;;0.10;0.10;;;22.90;99.90;;;;;;5047652;28;21255;-82
2023/06/20 01:05:26;;;;;;;0.10;0.10;;;22.90;99.90;;;;;;5049352;28;20202;-81
2023/06/20 01:08:34;;;;;;;0.10;0.10;;;22.70;99.90;;;;;;5049701;28;20213;-81
2023/06/20 01:11:03;;;;;;;0.10;0.10;;;22.50;99.90;;;;;;5056268;28;20235;-81
2023/06/20 01:13:48;;;;;;;0.10;0.10;;;22.40;99.90;;;;;;5048067;28;20193;-81
2023/06/20 01:16:29;;;;;;;0.10;0.10;;;22.30;99.90;;;;;;5045916;28;20182;-81
2023/06/20 01:19:20;;;;;;;0.10;0.10;;;22.10;99.90;;;;;;5048280;28;20547;-81
2023/06/20 01:21:52;;;;;;;0.10;0.10;;;22.20;99.90;;;;;;5043562;28;20730;-81
2023/06/20 01:24:34;;;;;;;0.10;0.10;;;22.10;99.90;;;;;;5047491;28;20177;-82
2023/06/20 01:27:15;;;;;;;0.10;0.10;;;21.80;99.90;;;;;;5048292;28;20213;-81
2023/06/20 01:29:46;;;;;;;0.10;0.10;;;21.60;99.90;;;;;;5046196;28;20210;-81
2023/06/20 01:32:17;;;;;;;0.10;0.10;;;21.50;99.90;;;;;;5046489;28;20225;-81
2023/06/20 01:34:50;;;;;;;0.10;0.10;;;21.40;99.90;;;;;;5048308;28;20173;-81
2023/06/20 01:37:20;;;;;;;0.10;0.10;;;21.40;99.90;;;;;;5046845;28;20192;-81
2023/06/20 01:39:50;;;;;;;0.10;0.10;;;21.40;99.90;;;;;;5049377;28;20209;-81
2023/06/20 01:42:19;;;;;;;0.10;0.10;;;21.50;99.90;;;;;;5046676;28;20205;-81
2023/06/20 01:44:46;;;;;;;0.10;0.10;;;21.50;99.90;;;;;;5044238;28;20209;-81
2023/06/20 01:47:14;;;;;;;0.10;0.10;;;21.50;99.90;;;;;;5047494;28;20229;-81
2023/06/20 01:49:42;;;;;;;0.10;0.10;;;21.50;99.90;;;;;;5046568;28;20604;-82
2023/06/20 01:52:10;;;;;;;0.10;0.10;;;21.40;99.90;;;;;;5046246;28;20189;-81
2023/06/20 01:54:37;;;;;;;0.10;0.10;;;21.40;99.90;;;;;;5047359;28;20185;-81
2023/06/20 01:57:04;;;;;;;0.10;0.10;;;21.40;99.90;;;;;;5045847;28;20780;-81
2023/06/20 01:59:30;;;;;;;0.10;0.10;;;21.40;99.90;;;;;;5045144;28;20233;-82
2023/06/20 02:01:58;;;;;;;0.10;0.10;;;21.50;99.90;;;;;;5048323;28;20209;-81
2023/06/20 02:04:26;;;;;;;0.10;0.10;;;21.60;99.90;;;;;;5047001;28;20189;-81
2023/06/20 02:06:52;;;;;;;0.10;0.10;;;21.90;99.90;;;;;;5047144;28;20213;-81
2023/06/20 02:09:18;;;;;;;0.10;0.10;;;22.10;99.90;;;;;;5045947;28;20249;-81
2023/06/20 02:11:45;;;;;;;0.10;0.10;;;22.40;99.90;;;;;;5047956;28;20186;-81
2023/06/20 02:14:11;;;;;;;0.10;0.10;;;22.40;99.90;;;;;;5047326;28;20185;-81
2023/06/20 02:16:38;;;;;;;0.10;0.10;;;22.60;99.90;;;;;;5046852;28;20201;-81
2023/06/20 02:19:06;;;;;;;0.10;0.10;;;22.70;99.90;;;;;;5047043;28;20192;-81
2023/06/20 02:21:36;;;;;;;0.10;0.10;;;22.70;99.90;;;;;;5047598;28;20186;-81
2023/06/20 02:24:04;;;;;;;0.10;0.10;;;22.70;99.90;;;;;;5046962;28;20182;-81
2023/06/20 02:26:34;;;;;;;0.10;0.10;;;22.80;99.90;;;;;;5046827;28;20217;-81
2023/06/20 02:29:03;;;;;;;0.10;0.10;;;22.80;99.90;;;;;;5045472;28;20251;-81
2023/06/20 02:31:31;;;;;;;0.10;0.10;;;22.80;99.90;;;;;;5048256;28;20197;-81
2023/06/20 02:33:58;;;;;;;0.10;0.10;;;22.90;99.90;;;;;;5047509;28;20213;-81
2023/06/20 02:36:27;;;;;;;0.10;0.10;;;22.80;99.90;;;;;;5045092;28;20201;-81
2023/06/20 02:38:55;;;;;;;0.10;0.10;;;22.90;99.90;;;;;;5047392;28;20202;-81
2023/06/20 02:41:21;;;;;;;0.10;0.10;;;22.90;99.90;;;;;;5046564;28;20194;-81
2023/06/20 02:43:46;;;;;;;0.10;0.10;;;22.80;99.90;;;;;;5050107;28;20189;-81
2023/06/20 02:46:35;;;;;;;0.10;0.10;;;22.50;99.90;;;;;;5043729;28;20210;-81
2023/06/20 02:49:32;;;;;;;0.10;0.10;;;22.40;99.90;;;;;;5047855;28;20193;-82
2023/06/20 02:52:36;;;;;;;0.10;0.10;;;22.20;99.90;;;;;;5049955;28;20193;-81
2023/06/20 02:55:30;;;;;;;0.10;0.10;;;21.90;99.90;;;;;;5047398;28;20174;-81
2023/06/20 02:57:59;;;;;;;0.10;0.10;;;21.80;99.90;;;;;;5046532;28;20266;-81
2023/06/20 03:00:25;;;;;;;0.10;0.10;;;22.00;99.90;;;;;;5045561;28;20213;-81
2023/06/20 03:02:59;;;;;;;0.10;0.10;;;22.10;99.90;;;;;;5046957;28;20186;-82
2023/06/20 03:05:28;;;;;;;0.10;0.10;;;22.20;99.90;;;;;;5045605;28;20206;-82
2023/06/20 03:07:55;;;;;;;0.10;0.10;;;21.90;99.90;;;;;;5048190;28;20601;-81
2023/06/20 03:10:22;;;;;;;0.10;0.10;;;21.40;99.90;;;;;;5046602;28;20233;-81
2023/06/20 03:12:50;;;;;;;0.10;0.10;;;21.20;99.90;;;;;;5044116;28;20690;-81
2023/06/20 03:15:16;;;;;;;0.10;0.10;;;21.40;99.90;;;;;;5045476;28;20186;-81
2023/06/20 03:17:41;;;;;;;0.10;0.10;;;21.40;99.90;;;;;;5048607;28;20201;-81
2023/06/20 03:20:09;;;;;;;0.10;0.10;;;21.50;99.90;;;;;;5046938;28;20198;-81
2023/06/20 03:22:34;;;;;;;0.10;0.10;;;21.40;99.90;;;;;;5045976;28;20263;-80
2023/06/20 03:25:00;;;;;;;0.10;0.10;;;21.30;99.90;;;;;;5048018;28;20197;-82
2023/06/20 03:27:25;;;;;;;0.10;0.10;;;21.30;99.90;;;;;;5047327;28;20232;-81
2023/06/20 03:29:51;;;;;;;0.10;0.10;;;21.50;99.90;;;;;;5045343;28;20202;-81
2023/06/20 03:32:16;;;;;;;0.10;0.10;;;21.50;99.90;;;;;;5046546;28;20221;-81
2023/06/20 03:34:42;;;;;;;0.10;0.10;;;21.40;99.90;;;;;;5048537;28;20266;-81
2023/06/20 03:37:07;;;;;;;0.10;0.10;;;21.40;99.90;;;;;;5049426;28;20218;-81
2023/06/20 03:39:33;;;;;;;0.10;0.10;;;21.60;99.90;;;;;;5043748;28;20614;-81
2023/06/20 03:41:58;;;;;;;0.10;0.10;;;21.80;99.90;;;;;;5044778;28;20178;-81
2023/06/20 03:44:24;;;;;;;0.10;0.10;;;22.00;99.90;;;;;;5044162;28;20224;-81
2023/06/20 03:46:53;;;;;;;0.10;0.10;;;22.00;99.90;;;;;;5045054;28;20198;-81
2023/06/20 03:49:18;;;;;;;0.10;0.10;;;21.50;99.90;;;;;;5045553;28;20259;-81
2023/06/20 03:51:44;;;;;;;0.10;0.10;;;21.70;99.90;;;;;;5047013;28;20181;-81
2023/06/20 03:54:09;;;;;;;0.10;0.10;;;21.90;99.90;;;;;;5046640;28;20268;-81
2023/06/20 03:56:35;;;;;;;0.10;0.10;;;21.80;99.90;;;;;;5039707;28;20189;-81
2023/06/20 03:59:00;;;;;;;0.10;0.10;;;21.70;99.90;;;;;;5042456;28;20699;-81
2023/06/20 04:01:26;;;;;;;0.10;0.10;;;21.80;99.90;;;;;;5039466;28;20574;-80
2023/06/20 04:03:54;;;;;;;0.10;0.10;;;21.70;99.90;;;;;;5034899;28;21875;-80
2023/06/20 04:06:19;;;;;;;0.10;0.10;;;21.60;99.90;;;;;;5043087;28;20562;-81
2023/06/20 04:08:45;;;;;;;0.10;0.10;;;21.70;99.90;;;;;;5043044;28;20272;-80
2023/06/20 04:11:11;;;;;;;0.10;0.10;;;21.70;99.90;;;;;;5040820;28;20565;-81
2023/06/20 04:13:36;;;;;;;0.10;0.10;;;21.60;99.90;;;;;;5044263;28;20185;-81
2023/06/20 04:16:02;;;;;;;0.10;0.10;;;21.40;99.90;;;;;;5046688;28;20293;-81
2023/06/20 04:18:27;;;;;;;0.10;0.10;;;21.20;99.90;;;;;;5047808;28;20193;-81
2023/06/20 04:20:53;;;;;;;0.10;0.10;;;21.30;99.90;;;;;;5044545;28;20209;-81
2023/06/20 04:23:19;;;;;;;0.10;0.10;;;21.50;99.90;;;;;;5048166;28;20229;-82
2023/06/20 04:25:44;;;;;;;0.10;0.10;;;21.60;99.90;;;;;;5047130;28;20201;-81
2023/06/20 04:28:10;;;;;;;0.10;0.10;;;21.60;99.90;;;;;;5047268;28;20261;-80
2023/06/20 04:30:35;;;;;;;0.10;0.10;;;21.50;99.90;;;;;;5044244;28;20232;-80
2023/06/20 04:33:01;;;;;;;0.10;0.10;;;21.70;99.90;;;;;;5046021;28;20209;-80
2023/06/20 04:35:26;;;;;;;0.10;0.10;;;22.00;99.90;;;;;;5046667;28;20190;-80
2023/06/20 04:37:52;;;;;;;0.10;0.10;;;22.10;99.90;;;;;;5044751;28;20186;-79
2023/06/20 04:40:17;;;;;;;0.10;0.10;;;22.30;99.90;;;;;;5044412;28;20209;-80
2023/06/20 04:42:46;;;;;;;0.10;0.10;;;22.40;99.90;;;;;;5043774;28;20213;-80
2023/06/20 04:45:12;;;;;;;0.10;0.10;;;22.50;99.90;;;;;;5043126;28;20596;-79
2023/06/20 04:47:38;;;;;;;0.10;0.10;;;22.70;99.90;;;;;;5046371;28;20229;-79
2023/06/20 04:50:04;;;;;;;0.10;0.10;;;22.80;99.90;;;;;;5042889;28;20197;-79
2023/06/20 04:52:30;;;;;;;0.10;0.10;;;22.80;99.90;;;;;;5045969;28;20650;-80
2023/06/20 04:55:02;;;;;;;0.10;0.10;;;22.90;99.90;;;;;;5044150;28;20200;-79
2023/06/20 04:57:31;;;;;;;0.10;0.10;;;23.00;99.90;;;;;;5042317;28;20232;-80
2023/06/20 04:59:57;;;;;;;0.10;0.10;;;22.90;99.90;;;;;;5047712;28;20213;-80
2023/06/20 05:02:23;;;;;;;0.10;0.10;;;23.10;99.90;;;;;;5045675;28;20194;-80
2023/06/20 05:04:49;;;;;;;0.10;0.10;;;22.80;99.90;;;;;;5045671;28;21081;-80
2023/06/20 05:07:14;;;;;;;0.10;0.10;;;22.60;99.90;;;;;;5044181;28;20206;-80
2023/06/20 05:09:40;;;;;;;0.10;0.10;;;22.50;99.90;;;;;;5044776;28;20210;-80
2023/06/20 05:12:06;;;;;;;0.10;0.10;;;22.60;99.90;;;;;;5043356;28;20197;-80
2023/06/20 05:14:31;;;;;;;0.10;0.10;;;23.10;99.90;;;;;;5040718;28;20182;-80
2023/06/20 05:16:57;;;;;;;0.10;0.10;;;22.80;99.90;;;;;;5041504;28;20926;-80
2023/06/20 05:19:22;;;;;;;0.10;0.10;;;23.20;99.90;;;;;;5046538;28;20305;-80
2023/06/20 05:21:48;;;;;;;0.10;0.10;;;23.70;99.90;;;;;;5043456;28;20227;-80
2023/06/20 05:24:14;;;;;;;0.10;0.10;;;24.20;99.90;;;;;;5047070;28;20190;-80
2023/06/20 05:26:39;;;;;;;0.10;0.10;;;24.30;99.90;;;;;;5046367;28;20206;-80
2023/06/20 05:29:05;;;;;;;0.10;0.10;;;23.60;99.90;;;;;;5045537;28;20181;-81
2023/06/20 05:31:31;;;;;;;0.10;0.10;;;24.00;99.90;;;;;;5044969;28;20227;-80
2023/06/20 05:33:57;;;;;;;0.10;0.10;;;24.30;99.90;;;;;;5046322;28;20181;-81
2023/06/20 05:36:22;;;;;;;0.10;0.10;;;24.50;99.90;;;;;;5046590;28;20248;-80
2023/06/20 05:38:48;;;;;;;0.10;0.10;;;24.40;99.90;;;;;;5046780;28;20190;-81
2023/06/20 05:41:15;;;;;;;0.10;0.10;;;24.60;99.90;;;;;;5045572;28;20284;-81
2023/06/20 05:43:40;;;;;;;0.10;0.10;;;24.30;99.90;;;;;;5042500;28;20190;-81
2023/06/20 05:46:06;;;;;;;0.10;0.10;;;24.50;99.90;;;;;;5046153;28;20228;-81
2023/06/20 05:48:32;;;;;;;0.10;0.10;;;24.90;99.90;;;;;;5050035;28;20185;-81
2023/06/20 05:51:00;;;;;;;0.10;0.10;;;24.50;99.90;;;;;;5046748;28;20206;-81
2023/06/20 05:53:28;;;;;;;0.10;0.10;;;24.00;99.90;;;;;;5044635;28;20185;-82
2023/06/20 05:55:54;;;;;;;0.10;0.10;;;23.70;99.90;;;;;;5049153;28;20205;-81
2023/06/20 05:58:20;;;;;;;0.10;0.10;;;23.80;99.90;;;;;;5049540;28;20267;-82
2023/06/20 06:00:46;;;;;;;0.10;0.10;;;23.90;99.90;;;;;;5049264;28;20216;-81
2023/06/20 06:03:12;;;;;;;0.10;0.10;;;24.20;99.90;;;;;;5049928;28;20185;-82
2023/06/20 06:05:39;;;;;;;0.10;0.10;;;24.20;99.90;;;;;;5047930;28;20316;-81
2023/06/20 06:08:05;;;;;;;0.10;0.10;;;24.60;99.90;;;;;;5048521;28;20289;-82
2023/06/20 06:10:31;;;;;;;0.10;0.10;;;24.80;99.90;;;;;;5050289;28;20293;-81
2023/06/20 06:12:56;;;;;;;0.10;0.10;;;24.60;99.90;;;;;;5050033;28;20202;-81
2023/06/20 06:15:22;;;;;;;0.10;0.10;;;25.10;99.90;;;;;;5049502;28;20181;-81
2023/06/20 06:17:48;;;;;;;0.10;0.10;;;25.40;99.90;;;;;;5047510;28;20604;-81
2023/06/20 06:20:17;;;;;;;0.10;0.10;;;25.00;99.90;;;;;;5048678;28;20304;-81
2023/06/20 06:22:43;;;;;;;0.10;0.10;;;25.10;99.90;;;;;;5042908;28;20194;-81
2023/06/20 06:25:08;;;;;;;0.10;0.10;;;25.30;99.90;;;;;;5048763;28;20231;-81
2023/06/20 06:27:34;;;;;;;0.10;0.10;;;25.00;99.90;;;;;;5046914;28;20205;-81
2023/06/20 06:30:00;;;;;;;0.10;0.10;;;24.70;99.90;;;;;;5049544;28;20206;-81
2023/06/20 06:32:27;;;;;;;0.10;0.10;;;25.00;99.90;;;;;;5047297;28;20185;-81
2023/06/20 06:34:53;;;;;;;0.10;0.10;;;25.10;99.90;;;;;;5044960;28;20599;-81
2023/06/20 06:37:21;;;;;;;0.10;0.10;;;24.70;99.90;;;;;;5048036;28;20207;-81
2023/06/20 06:39:46;;;;;;;0.10;0.10;;;25.50;99.90;;;;;;5047095;28;20301;-81
2023/06/20 06:42:12;;;;;;;0.10;0.10;;;25.80;99.90;;;;;;5047875;28;21090;-81
2023/06/20 06:44:38;;;;;;;0.10;0.10;;;26.30;99.90;;;;;;5047471;28;20186;-81
2023/06/20 06:47:04;;;;;;;0.10;0.10;;;26.50;99.90;;;;;;5049723;28;20590;-81
2023/06/20 06:49:31;;;;;;;0.10;0.10;;;25.70;99.90;;;;;;5041590;28;20208;-82
2023/06/20 06:51:56;;;;;;;0.10;0.10;;;26.10;99.90;;;;;;5037495;28;20192;-82
2023/06/20 06:54:22;;;;;;;0.10;0.10;;;25.70;99.90;;;;;;5039299;28;20181;-82
2023/06/20 06:56:47;;;;;;;0.10;0.10;;;25.70;99.90;;;;;;5043485;28;20244;-82
2023/06/20 06:59:13;;;;;;;0.10;0.10;;;26.00;99.90;;;;;;5039979;28;20204;-82
2023/06/20 07:01:39;;;;;;;0.10;0.10;;;25.80;99.90;;;;;;5041082;28;20186;-82
2023/06/20 07:04:05;;;;;;;0.10;0.10;;;26.40;99.90;;;;;;5039330;28;20228;-82
2023/06/20 07:06:30;;;;;;;0.10;0.10;;;26.80;99.90;;;;;;5041315;28;20223;-82
2023/06/20 07:08:56;;;;;;;0.10;0.10;;;26.90;99.90;;;;;;5040805;28;20174;-82
2023/06/20 07:11:22;;;;;;;0.10;0.10;;;26.10;99.90;;;;;;5040901;28;20182;-82
2023/06/20 07:13:47;;;;;;;0.10;0.10;;;26.50;99.90;;;;;;5040372;28;20181;-82
2023/06/20 07:16:13;;;;;;;0.10;0.10;;;26.70;99.90;;;;;;5035507;28;20531;-86
2023/06/20 07:18:39;;;;;;;0.10;0.10;;;26.80;99.90;;;;;;5039927;28;20726;-82
2023/06/20 07:21:05;;;;;;;0.10;0.10;;;26.30;99.90;;;;;;5041929;28;20205;-82
2023/06/20 07:23:32;;;;;;;0.10;0.10;;;26.00;99.90;;;;;;5042849;28;20213;-83
2023/06/20 07:25:58;;;;;;;0.10;0.10;;;26.60;99.90;;;;;;5046914;28;20186;-82
2023/06/20 07:28:25;;;;;;;0.10;0.10;;;27.40;99.90;;;;;;5046286;28;20320;-81
2023/06/20 07:30:50;;;;;;;0.10;0.10;;;27.80;99.90;;;;;;5043627;28;20258;-82
2023/06/20 07:33:16;;;;;;;0.10;0.10;;;28.00;99.90;;;;;;5046028;28;20647;-81
2023/06/20 07:35:41;;;;;;;0.10;0.10;;;28.10;99.90;;;;;;5043113;28;20223;-82
2023/06/20 07:38:07;;;;;;;0.10;0.10;;;27.80;99.90;;;;;;5042308;28;20186;-82
2023/06/20 07:40:32;;;;;;;0.10;0.10;;;27.70;99.90;;;;;;5041113;28;20208;-83
2023/06/20 07:42:58;;;;;;;0.10;0.10;;;26.90;99.90;;;;;;5041298;28;20220;-83
2023/06/20 07:45:23;;;;;;;0.10;0.10;;;27.30;99.90;;;;;;5038915;28;20280;-81
2023/06/20 07:47:49;;;;;;;0.10;0.10;;;27.60;99.90;;;;;;5042936;28;20197;-83
2023/06/20 07:50:15;;;;;;;0.10;0.10;;;27.70;99.90;;;;;;5041791;28;20210;-82
2023/06/20 07:52:40;;;;;;;0.10;0.10;;;26.40;99.90;;;;;;5032992;28;20190;-82
2023/06/20 07:55:06;;;;;;;0.10;0.10;;;25.70;99.90;;;;;;5041509;28;20190;-81
2023/06/20 07:57:31;;;;;;;0.10;0.10;;;25.80;99.90;;;;;;5039978;28;20201;-81
2023/06/20 07:59:57;;;;;;;0.10;0.10;;;25.80;99.90;;;;;;5042547;28;20639;-82
2023/06/20 08:02:23;;;;;;;0.10;0.10;;;26.00;99.90;;;;;;5041302;28;20208;-81
2023/06/20 08:04:48;;;;;;;0.10;0.10;;;26.10;99.90;;;;;;5044350;28;20196;-82
2023/06/20 08:07:15;;;;;;;0.30;0.30;;;26.70;99.90;;;;;;5040831;28;20230;-81
2023/06/20 08:09:41;;;;;;;0.10;0.10;;;27.30;99.90;;;;;;5040568;28;20556;-84
2023/06/20 08:12:07;;;;;;;0.10;0.10;;;28.00;99.90;;;;;;5040203;28;20192;-82
2023/06/20 08:14:33;;;;;;;0.10;0.10;;;28.50;99.90;;;;;;5041370;28;20190;-82
2023/06/20 08:16:58;;;;;;;0.10;0.10;;;28.80;99.90;;;;;;5040727;28;20185;-84
2023/06/20 08:19:24;;;;;;;0.10;0.10;;;29.30;99.90;;;;;;5044123;28;20263;-82
2023/06/20 08:21:49;;;;;;;0.10;0.10;;;28.50;99.90;;;;;;5039059;28;20188;-82
2023/06/20 08:24:15;;;;;;;0.10;0.10;;;28.80;99.90;;;;;;5036846;28;20231;-82
2023/06/20 08:26:40;;;;;;;0.10;0.10;;;28.40;99.90;;;;;;5039957;28;20197;-83
2023/06/20 08:29:08;;;;;;;0.10;0.10;;;28.40;99.90;;;;;;5041995;28;20182;-82
2023/06/20 08:31:36;;;;;;;0.10;0.10;;;28.40;99.90;;;;;;5042433;28;20178;-82
2023/06/20 08:34:05;;;;;;;0.10;0.10;;;28.70;99.90;;;;;;5043691;28;20170;-82
2023/06/20 08:36:34;;;;;;;0.10;0.10;;;29.10;99.90;;;;;;5043425;28;20193;-82
2023/06/20 08:39:01;;;;;;;0.10;0.10;;;29.00;99.90;;;;;;5038669;28;20277;-82
2023/06/20 08:41:27;;;;;;;0.10;0.10;;;28.10;99.90;;;;;;5040331;28;20230;-82
2023/06/20 08:43:53;;;;;;;0.10;0.10;;;28.30;99.90;;;;;;5043128;28;20181;-81
2023/06/20 08:46:19;;;;;;;0.10;0.10;;;28.50;99.90;;;;;;5042763;28;20216;-81
2023/06/20 08:48:46;;;;;;;0.10;0.10;;;28.60;99.90;;;;;;5043679;28;20580;-84
2023/06/20 08:51:15;;;;;;;0.10;0.10;;;28.30;99.90;;;;;;5044152;28;20229;-81
2023/06/20 08:53:43;;;;;;;0.20;0.20;;;28.00;99.90;;;;;;5038915;28;20217;-81
2023/06/20 08:56:08;;;;;;;0.10;0.10;;;28.20;99.90;;;;;;5037308;28;20187;-82
2023/06/20 08:58:34;;;;;;;0.10;0.10;;;28.40;99.90;;;;;;5043494;28;20189;-81
2023/06/20 09:01:00;;;;;;;0.10;0.10;;;28.70;99.90;;;;;;5044933;28;20212;-82
2023/06/20 09:03:25;;;;;;;0.10;0.10;;;29.20;99.90;;;;;;5044802;28;20941;-83
2023/06/20 09:05:51;;;;;;;0.10;0.10;;;30.00;99.90;;;;;;5043370;28;20209;-80
2023/06/20 09:08:16;;;;;;;0.10;0.10;;;30.50;99.90;;;;;;5046357;28;20326;-81
2023/06/20 09:10:44;;;;;;;0.10;0.10;;;30.60;99.90;;;;;;5044704;28;20202;-82
2023/06/20 09:13:11;;;;;;;0.10;0.10;;;30.80;99.90;;;;;;5044358;28;20232;-81
2023/06/20 09:15:38;;;;;;;0.10;0.10;;;30.90;99.90;;;;;;5038544;28;20181;-83
2023/06/20 09:18:06;;;;;;;0.10;0.10;;;31.10;99.90;;;;;;5044010;28;20190;-82
2023/06/20 09:20:32;;;;;;;0.10;0.10;;;31.00;99.90;;;;;;5040776;28;20573;-83
2023/06/20 09:22:58;;;;;;;0.10;0.10;;;30.20;99.90;;;;;;5040710;28;20201;-85
2023/06/20 09:25:26;;;;;;;0.10;0.10;;;30.50;99.90;;;;;;5042689;28;20689;-86
2023/06/20 09:27:52;;;;;;;0.10;0.10;;;30.70;99.90;;;;;;5046321;28;20205;-83
2023/06/20 09:30:18;;;;;;;0.10;0.10;;;31.10;99.90;;;;;;5046517;28;20288;-84
2023/06/20 09:32:44;;;;;;;0.10;0.10;;;31.50;99.90;;;;;;5045444;28;20348;-84
2023/06/20 09:35:16;;;;;;;0.10;0.10;;;31.80;99.90;;;;;;5045530;28;20185;-84
2023/06/20 09:37:49;;;;;;;0.10;0.10;;;31.70;99.90;;;;;;5044006;28;20247;-84
2023/06/20 09:40:17;;;;;;;0.10;0.10;;;31.70;99.90;;;;;;5044803;28;20699;-83
2023/06/20 09:42:44;;;;;;;0.10;0.10;;;31.70;99.90;;;;;;5042844;28;21022;-84
2023/06/20 09:45:11;;;;;;;0.10;0.10;;;32.10;99.90;;;;;;5044785;28;20193;-84
2023/06/20 09:47:38;;;;;;;0.10;0.10;;;32.50;99.90;;;;;;5043550;28;20213;-84
2023/06/20 09:50:16;;;;;;;0.10;0.10;;;32.70;99.90;;;;;;5044962;28;20288;-82
2023/06/20 09:52:51;;;;;;;0.10;0.10;;;31.70;99.90;;;;;;5043295;28;20196;-83
2023/06/20 09:55:20;;;;;;;0.10;0.10;;;31.90;99.90;;;;;;5045045;28;20181;-83
2023/06/20 09:57:57;;;;;;;0.10;0.10;;;32.00;99.90;;;;;;5044762;28;20185;-83
2023/06/20 10:00:26;;;;;;;0.10;0.10;;;31.30;99.90;;;;;;5045504;28;20217;-83
2023/06/20 10:02:53;;;;;;;0.10;0.10;;;31.60;99.90;;;;;;5040917;28;20186;-84
2023/06/20 10:05:20;;;;;;;0.10;0.10;;;31.40;99.90;;;;;;5043896;28;20601;-83
2023/06/20 10:07:48;;;;;;;0.10;0.10;;;30.10;99.90;;;;;;5045045;28;20324;-83
2023/06/20 10:10:15;;;;;;;0.10;0.10;;;31.00;99.90;;;;;;5044605;28;20767;-83
2023/06/20 10:12:44;;;;;;;0.10;0.10;;;30.20;99.90;;;;;;5044206;28;20276;-84
2023/06/20 10:15:11;;;;;;;0.10;0.10;;;30.30;99.90;;;;;;5046076;28;20257;-85
2023/06/20 10:17:46;;;;;;;0.10;0.10;;;30.60;99.90;;;;;;5043733;28;20190;-84
2023/06/20 10:20:33;;;;;;;0.10;0.10;;;31.30;99.90;;;;;;5046776;28;20223;-83
2023/06/20 10:23:03;;;;;;;0.10;0.10;;;32.10;99.90;;;;;;5046229;28;20185;-83
2023/06/20 10:25:29;;;;;;;0.10;0.10;;;31.40;99.90;;;;;;5045564;28;20186;-82
2023/06/20 10:27:56;;;;;;;0.10;0.10;;;31.80;99.90;;;;;;5046949;28;20213;-85
2023/06/20 10:30:50;;;;;;;0.10;0.10;;;32.20;99.90;;;;;;5048435;28;20729;-84
2023/06/20 10:33:22;;;;;;;0.10;0.10;;;31.80;99.90;;;;;;5048668;28;20209;-85
2023/06/20 10:36:08;;;;;;;0.10;0.10;;;31.40;99.90;;;;;;5044494;28;20187;-85
2023/06/20 10:38:52;;;;;;;0.10;0.10;;;31.90;99.90;;;;;;5043539;28;20883;-84
2023/06/20 10:41:21;;;;;;;0.10;0.10;;;32.20;99.90;;;;;;5044428;28;20220;-84
2023/06/20 10:43:57;;;;;;;0.10;0.10;;;32.30;99.90;;;;;;5044769;28;20271;-85
2023/06/20 10:46:38;;;;;;;0.10;0.10;;;33.00;99.90;;;;;;5044132;28;20220;-84
2023/06/20 10:49:05;;;;;;;0.10;0.10;;;33.50;99.90;;;;;;5043769;28;20259;-84
2023/06/20 10:51:30;;;;;;;0.10;0.10;;;33.60;99.90;;;;;;5041606;28;20182;-84
2023/06/20 10:54:09;;;;;;;0.10;0.10;;;33.00;99.90;;;;;;5042458;28;20178;-85
2023/06/20 10:56:35;;;;;;;0.10;0.10;;;33.30;99.90;;;;;;5041960;28;20189;-84
2023/06/20 10:59:18;;;;;;;0.10;0.10;;;32.90;99.90;;;;;;5044006;28;20280;-84
2023/06/20 11:01:44;;;;;;;0.10;0.10;;;31.80;99.90;;;;;;5040812;28;20224;-85
2023/06/20 11:04:15;;;;;;;0.10;0.10;;;32.20;99.90;;;;;;5043507;28;20178;-84
2023/06/20 11:06:41;;;;;;;0.10;0.10;;;32.10;99.90;;;;;;5042883;28;20824;-84
2023/06/20 11:09:20;;;;;;;0.10;0.10;;;31.70;99.90;;;;;;5043757;28;20230;-84
2023/06/20 11:11:47;;;;;;;0.10;0.10;;;31.90;99.90;;;;;;5042411;28;20181;-84
2023/06/20 11:14:21;;;;;;;0.10;0.10;;;32.10;99.90;;;;;;5042422;28;20182;-84
2023/06/20 11:16:49;;;;;;;0.10;0.10;;;32.80;99.90;;;;;;5044997;28;20260;-83
2023/06/20 11:19:19;;;;;;;0.10;0.10;;;32.70;99.90;;;;;;5043299;28;20190;-84
2023/06/20 11:21:44;;;;;;;0.10;0.10;;;32.90;99.90;;;;;;5040059;28;20231;-84
2023/06/20 11:24:10;;;;;;;0.10;0.10;;;32.00;99.90;;;;;;5042683;28;20190;-84
2023/06/20 11:26:36;;;;;;;0.10;0.10;;;32.20;99.90;;;;;;5042812;28;20275;-84
2023/06/20 11:29:05;;;;;;;0.10;0.10;;;32.80;99.90;;;;;;5042817;28;20186;-85
2023/06/20 11:31:32;;;;;;;0.10;0.10;;;33.00;99.90;;;;;;5041900;28;20178;-84
2023/06/20 11:34:05;;;;;;;0.40;0.40;;;33.50;99.90;;;;;;5044916;28;20177;-84
2023/06/20 11:36:33;;;;;;;0.10;0.10;;;32.90;99.90;;;;;;5046682;28;20185;-84
2023/06/20 11:38:59;;;;;;;0.10;0.10;;;32.60;99.90;;;;;;5041291;28;20277;-86
2023/06/20 11:41:31;;;;;;;0.10;0.10;;;32.70;99.90;;;;;;5041377;28;20181;-85
2023/06/20 11:43:57;;;;;;;0.10;0.10;;;32.90;99.90;;;;;;5041283;28;20213;-85
2023/06/20 11:46:23;;;;;;;0.10;0.10;;;33.40;99.90;;;;;;5044390;28;20248;-84
2023/06/20 11:48:50;;;;;;;0.10;0.10;;;33.60;99.90;;;;;;5042331;28;20178;-84
2023/06/20 11:51:18;;;;;;;0.10;0.10;;;33.10;99.90;;;;;;5045604;28;20229;-84
2023/06/20 11:53:44;;;;;;;0.10;0.10;;;33.20;99.90;;;;;;5044338;28;20827;-84
2023/06/20 11:56:14;;;;;;;0.10;0.10;;;33.10;99.90;;;;;;5043933;28;20200;-84
2023/06/20 11:58:42;;;;;;;0.10;0.10;;;33.60;99.90;;;;;;5045027;28;20264;-85
2023/06/20 12:01:14;;;;;;;0.10;0.10;;;33.90;99.90;;;;;;5045078;28;20228;-84
2023/06/20 12:03:41;;;;;;;0.10;0.10;;;34.00;99.90;;;;;;5043246;28;20178;-84
2023/06/20 12:06:30;;;;;;;0.10;0.10;;;34.30;99.90;;;;;;5043770;28;20299;-85
2023/06/20 12:09:17;;;;;;;0.10;0.10;;;34.50;99.90;;;;;;5042922;28;20289;-83
2023/06/20 12:11:52;;;;;;;0.10;0.10;;;34.40;99.90;;;;;;5041853;28;21618;-85
2023/06/20 12:14:18;;;;;;;0.20;0.20;;;33.90;99.90;;;;;;5042153;28;20188;-84
2023/06/20 12:16:44;;;;;;;0.10;0.10;;;33.80;99.90;;;;;;5043432;28;20717;-85
2023/06/20 12:19:10;;;;;;;0.10;0.10;;;33.20;99.90;;;;;;5043941;28;20189;-84
2023/06/20 12:21:38;;;;;;;0.10;0.10;;;33.50;99.90;;;;;;5042438;28;20185;-84
2023/06/20 12:24:07;;;;;;;0.10;0.10;;;33.60;99.90;;;;;;5042890;28;20193;-85
2023/06/20 12:26:33;;;;;;;0.10;0.10;;;33.50;99.90;;;;;;5041601;28;20247;-84
2023/06/20 12:28:59;;;;;;;0.10;0.10;;;33.80;99.90;;;;;;5043561;28;20174;-84
2023/06/20 12:31:24;;;;;;;0.10;0.10;;;33.90;99.90;;;;;;5041201;28;20224;-84
2023/06/20 12:33:50;;;;;;;0.10;0.10;;;34.10;99.90;;;;;;5045266;28;20187;-85
2023/06/20 12:36:17;;;;;;;0.10;0.10;;;34.20;99.90;;;;;;5042284;28;20276;-84
2023/06/20 12:38:43;;;;;;;0.10;0.10;;;34.20;99.90;;;;;;5044520;28;20181;-85
2023/06/20 12:41:10;;;;;;;0.10;0.10;;;34.60;99.90;;;;;;5042209;28;20201;-85
2023/06/20 12:43:36;;;;;;;0.10;0.10;;;34.30;99.90;;;;;;5045573;28;20881;-83
2023/06/20 12:46:02;;;;;;;0.10;0.10;;;33.60;99.90;;;;;;5046024;28;20186;-83
2023/06/20 12:48:27;;;;;;;0.10;0.10;;;34.20;99.90;;;;;;5045527;28;20232;-83
2023/06/20 12:50:53;;;;;;;0.10;0.10;;;34.50;99.90;;;;;;5044680;28;20202;-83
2023/06/20 12:53:19;;;;;;;0.10;0.10;;;34.80;99.90;;;;;;5043597;28;20192;-84